createdAt,value
2018-06-03T00:01:30.998Z,95561.6
2018-06-03T00:06:26.972Z,95563
2018-06-03T00:11:22.740Z,95558.8
2018-06-03T00:16:18.843Z,95551.5
2018-06-03T00:21:15.063Z,95553.1
2018-06-03T00:26:12.079Z,95551.7
2018-06-03T00:31:07.757Z,95563.6
2018-06-03T00:36:03.723Z,95563.9
2018-06-03T00:40:59.768Z,95554.5
2018-06-03T00:45:56.545Z,95552.4
2018-06-03T00:50:52.373Z,95554.5
2018-06-03T00:55:48.565Z,95557.7
2018-06-03T01:00:44.666Z,95554.2
2018-06-03T01:05:40.739Z,95549.4
2018-06-03T01:10:36.831Z,95550.9
2018-06-03T01:15:32.956Z,95547.8
2018-06-03T01:20:28.916Z,95556.8
2018-06-03T01:25:24.908Z,95560.5
2018-06-03T01:30:21.043Z,95560
2018-06-03T01:35:16.900Z,95561.1
2018-06-03T01:40:12.945Z,95450.2
2018-06-03T01:45:08.904Z,95550
2018-06-03T01:50:04.891Z,95547.5
2018-06-03T01:55:01.066Z,95507.7
2018-06-03T01:59:57.272Z,95540.7
2018-06-03T02:04:53.213Z,95381.3
2018-06-03T02:09:49.096Z,95544.8
2018-06-03T02:14:44.871Z,95544.9
2018-06-03T02:19:41.034Z,95544.3
2018-06-03T02:24:37.246Z,95499.1
2018-06-03T02:29:33.311Z,95543.6
2018-06-03T02:34:29.440Z,95539.6
2018-06-03T02:39:25.552Z,95548.3
2018-06-03T02:44:21.306Z,95547.3
2018-06-03T02:49:17.426Z,95462.7
2018-06-03T02:54:13.719Z,95552.9
2018-06-03T02:59:09.709Z,95541.9
2018-06-03T03:04:05.669Z,95450.4
2018-06-03T03:09:01.511Z,95546.2
2018-06-03T03:13:57.530Z,95548.7
2018-06-03T03:18:53.301Z,95538.7
2018-06-03T03:23:49.315Z,95449.7
2018-06-03T03:28:45.490Z,95544.2
2018-06-03T03:33:41.434Z,95453.8
2018-06-03T03:38:37.496Z,95443.1
2018-06-03T03:43:33.585Z,95543.5
2018-06-03T03:48:29.426Z,95464.7
2018-06-03T03:53:25.643Z,95469.2
2018-06-03T03:58:21.747Z,95554
2018-06-03T04:03:17.619Z,95541
2018-06-03T04:08:13.748Z,95554.2
2018-06-03T04:13:09.943Z,95561.3
2018-06-03T04:18:05.968Z,95566
2018-06-03T04:23:02.276Z,95558.8
2018-06-03T04:27:58.225Z,95457.1
2018-06-03T04:32:54.178Z,95554.8
2018-06-03T04:37:50.685Z,95547.8
2018-06-03T04:42:46.871Z,95559.5
2018-06-03T04:47:43.112Z,95469.3
2018-06-03T04:52:39.364Z,95556.8
2018-06-03T04:57:35.336Z,95535.2
2018-06-03T05:02:31.530Z,95559.1
2018-06-03T05:07:27.801Z,95557.3
2018-06-03T05:12:23.568Z,95565.2
2018-06-03T05:17:19.848Z,95570
2018-06-03T05:22:15.947Z,95564.5
2018-06-03T05:27:11.992Z,95561.9
2018-06-03T05:32:08.391Z,95566
2018-06-03T05:37:04.907Z,95562.5
2018-06-03T05:42:01.012Z,95569.6
2018-06-03T05:46:56.877Z,95575.7
2018-06-03T05:51:53.386Z,95571.6
2018-06-03T05:56:49.205Z,95566.3
2018-06-03T06:01:45.020Z,95572.3
2018-06-03T06:06:41.153Z,95578.9
2018-06-03T06:11:37.513Z,95574.6
2018-06-03T06:16:33.467Z,95571.7
2018-06-03T06:21:29.283Z,95573.5
2018-06-03T06:26:25.384Z,95572.4
2018-06-03T06:31:21.244Z,95572.8
2018-06-03T06:36:17.546Z,95563.7
2018-06-03T06:41:13.486Z,95560.7
2018-06-03T06:46:09.539Z,95569.2
2018-06-03T06:51:05.656Z,95560.1
2018-06-03T06:56:01.555Z,95554.4
2018-06-03T07:00:57.489Z,95524.1
2018-06-03T07:05:53.568Z,95579.5
2018-06-03T07:10:50.139Z,95552.8
2018-06-03T07:15:46.345Z,95558.6
2018-06-03T07:20:45.392Z,95551
2018-06-03T07:25:41.288Z,95548.6
2018-06-03T07:30:37.321Z,95543.2
2018-06-03T07:35:33.475Z,95539.8
2018-06-03T07:40:29.560Z,95540.5
2018-06-03T07:45:25.448Z,95545.9
2018-06-03T07:50:24.103Z,95539.6
2018-06-03T07:55:19.910Z,95536
2018-06-03T08:00:16.069Z,95537.7
2018-06-03T08:05:12.421Z,95542.4
2018-06-03T08:10:08.840Z,95533.8
2018-06-03T08:15:04.930Z,95522.5
2018-06-03T08:20:01.370Z,95521.4
2018-06-03T08:24:57.182Z,95421.5
2018-06-03T08:29:53.664Z,95508.4
2018-06-03T08:34:49.836Z,95506.5
2018-06-03T08:39:46.209Z,95500.3
2018-06-03T08:44:42.404Z,95501.6
2018-06-03T08:49:38.887Z,95491.5
2018-06-03T08:54:34.929Z,95479.7
2018-06-03T08:59:31.279Z,95478.9
2018-06-03T09:04:27.506Z,95391.2
2018-06-03T09:09:24.442Z,95474.8
2018-06-03T09:14:20.523Z,95464.1
2018-06-03T09:19:20.826Z,95375.1
2018-06-03T09:24:15.570Z,95449.1
2018-06-03T09:29:11.745Z,95453.4
2018-06-03T09:34:08.392Z,95447.5
2018-06-03T09:39:04.551Z,95451.2
2018-06-03T09:44:00.947Z,95438.1
2018-06-03T09:48:56.278Z,95428.7
2018-06-03T09:53:52.645Z,95420.3
2018-06-03T09:58:49.109Z,95417.5
2018-06-03T10:03:45.205Z,95421.4
2018-06-03T10:08:41.639Z,95418.8
2018-06-03T10:13:37.519Z,95421.3
2018-06-03T10:18:33.714Z,95418
2018-06-03T10:23:29.371Z,95414.7
2018-06-03T10:28:25.779Z,95368.3
2018-06-03T10:33:22.109Z,95389.5
2018-06-03T10:38:18.472Z,95403.9
2018-06-03T10:43:15.035Z,95395.2
2018-06-03T10:48:11.234Z,95393.8
2018-06-03T10:53:07.382Z,95410
2018-06-03T10:58:03.802Z,95412.5
2018-06-03T11:03:00.030Z,95412.5
2018-06-03T11:07:56.023Z,95405.7
2018-06-03T11:12:52.167Z,95393.6
2018-06-03T11:17:50.945Z,95289.8
2018-06-03T11:22:46.220Z,95406.1
2018-06-03T11:27:41.939Z,95390
2018-06-03T11:32:37.996Z,95386.9
2018-06-03T11:37:33.883Z,95394.1
2018-06-03T11:42:30.143Z,95315.4
2018-06-03T11:47:25.715Z,95401.7
2018-06-03T11:52:21.618Z,95402
2018-06-03T11:57:17.695Z,95299.7
2018-06-03T12:02:13.605Z,95339.3
2018-06-03T12:07:09.853Z,95276
2018-06-03T12:12:05.728Z,95355.1
2018-06-03T12:17:02.072Z,95271.5
2018-06-03T12:21:58.244Z,95341.8
2018-06-03T12:26:54.607Z,95264.7
2018-06-03T12:31:50.531Z,95245.6
2018-06-03T12:36:46.948Z,95260.2
2018-06-03T12:41:42.738Z,95331.2
2018-06-03T12:46:38.916Z,95329.1
2018-06-03T12:51:35.218Z,95228.7
2018-06-03T12:56:31.114Z,95236.5
2018-06-03T13:01:27.158Z,95325.5
2018-06-03T13:06:23.261Z,95342.1
2018-06-03T13:11:19.475Z,95357.1
2018-06-03T13:16:15.853Z,95363.8
2018-06-03T13:21:12.510Z,95370.8
2018-06-03T13:26:08.837Z,95379.6
2018-06-03T13:31:04.579Z,95400
2018-06-03T13:36:00.278Z,95393
2018-06-03T13:40:56.345Z,95401.7
2018-06-03T13:45:52.340Z,95412.8
2018-06-03T13:50:48.332Z,95410.9
2018-06-03T13:55:44.188Z,95361.5
2018-06-03T14:00:40.389Z,95372
2018-06-03T14:05:36.584Z,95374.4
2018-06-03T14:10:32.824Z,95380
2018-06-03T14:15:28.926Z,95361.1
2018-06-03T14:20:24.873Z,95362.5
2018-06-03T14:25:21.128Z,95257.7
2018-06-03T14:30:16.937Z,95327.3
2018-06-03T14:35:13.284Z,95207.6
2018-06-03T14:40:09.398Z,95215.3
2018-06-03T14:45:05.703Z,95283.7
2018-06-03T14:50:01.822Z,95272.1
2018-06-03T14:54:57.656Z,95262.5
2018-06-03T14:59:53.636Z,95251.9
2018-06-03T15:04:50.222Z,95146.5
2018-06-03T15:09:46.534Z,95233.9
2018-06-03T15:14:42.712Z,95239.7
2018-06-03T15:19:38.756Z,95152.1
2018-06-03T15:24:34.985Z,95220.4
2018-06-03T15:29:31.104Z,95262.6
2018-06-03T15:34:27.386Z,95223
2018-06-03T15:39:23.527Z,95277.7
2018-06-03T15:44:19.499Z,95193.7
2018-06-03T15:49:15.920Z,95210.6
2018-06-03T15:54:12.545Z,95298.6
2018-06-03T15:59:08.025Z,95291.3
2018-06-03T16:04:04.365Z,95201.8
2018-06-03T16:09:00.547Z,95280.5
2018-06-03T16:13:56.859Z,95281
2018-06-03T16:18:53.090Z,95221
2018-06-03T16:23:49.270Z,95282.4
2018-06-03T16:28:45.206Z,95178.2
2018-06-03T16:33:41.338Z,95278.1
2018-06-03T16:38:37.559Z,95273.5
2018-06-03T16:43:34.299Z,95280.3
2018-06-03T16:48:30.488Z,95276.5
2018-06-03T16:53:26.553Z,95293.3
2018-06-03T16:58:22.924Z,95213.5
2018-06-03T17:03:18.578Z,95221.6
2018-06-03T17:08:14.707Z,95218.4
2018-06-03T17:13:10.763Z,95314.9
2018-06-03T17:18:06.895Z,95227.4
2018-06-03T17:23:02.934Z,95316.3
2018-06-03T17:27:59.119Z,95224
2018-06-03T17:32:54.934Z,95213.5
2018-06-03T17:37:50.986Z,95311.4
2018-06-03T17:42:46.998Z,95218.5
2018-06-03T17:47:43.297Z,95302.8
2018-06-03T17:52:39.050Z,95270.1
2018-06-03T17:57:35.014Z,95304.2
2018-06-03T18:02:31.104Z,95308.4
2018-06-03T18:07:26.593Z,95300
2018-06-03T18:12:22.041Z,95294.5
2018-06-03T18:17:18.017Z,95290.1
2018-06-03T18:22:13.872Z,95189.3
2018-06-03T18:27:09.927Z,95272.4
2018-06-03T18:32:05.717Z,95267.5
2018-06-03T18:37:01.618Z,95268
2018-06-03T18:41:57.615Z,95260.8
2018-06-03T18:46:53.729Z,95173.7
2018-06-03T18:51:50.067Z,95170.8
2018-06-03T18:56:45.898Z,95266.6
2018-06-03T19:01:41.774Z,95266.4
2018-06-03T19:06:37.583Z,95280.8
2018-06-03T19:11:33.547Z,95291.7
2018-06-03T19:16:29.392Z,95294.8
2018-06-03T19:21:25.481Z,95298.9
2018-06-03T19:26:20.986Z,95302
2018-06-03T19:31:17.222Z,95309.5
2018-06-03T19:36:13.354Z,95259.2
2018-06-03T19:41:09.384Z,95317
2018-06-03T19:46:05.534Z,95323.9
2018-06-03T19:51:01.399Z,95339.5
2018-06-03T19:55:56.998Z,95336.6
2018-06-03T20:00:53.411Z,95329.2
2018-06-03T20:05:49.530Z,95296
2018-06-03T20:10:45.184Z,95244.2
2018-06-03T20:15:40.731Z,95338.4
2018-06-03T20:20:36.771Z,95336.1
2018-06-03T20:25:32.758Z,95337.8
2018-06-03T20:30:28.751Z,95344.9
2018-06-03T20:35:24.789Z,95343.9
2018-06-03T20:40:20.548Z,95359.1
2018-06-03T20:45:16.378Z,95359.1
2018-06-03T20:50:11.879Z,95360.2
2018-06-03T20:55:08.133Z,95367.3
2018-06-03T21:00:05.112Z,95268.3
2018-06-03T21:05:01.176Z,95367.3
2018-06-03T21:09:57.374Z,95266.4
2018-06-03T21:14:53.349Z,95348.2
2018-06-03T21:19:49.623Z,95334.8
2018-06-03T21:24:45.945Z,95328.3
2018-06-03T21:29:41.923Z,95321.7
2018-06-03T21:34:37.600Z,95320
2018-06-03T21:39:33.611Z,95330
2018-06-03T21:44:29.638Z,95317.7
2018-06-03T21:49:25.900Z,95326
2018-06-03T21:54:21.967Z,94446.2
2018-06-03T21:59:18.130Z,95307.6
2018-06-03T22:04:14.107Z,95312.6
2018-06-03T22:09:10.171Z,95313.5
2018-06-03T22:14:06.395Z,95309.9
2018-06-03T22:19:02.417Z,95311.8
2018-06-03T22:23:58.583Z,95308.9
2018-06-03T22:28:54.585Z,95303.1
2018-06-03T22:33:51.022Z,95297.8
2018-06-03T22:38:46.767Z,95307
2018-06-03T22:43:42.951Z,95296
2018-06-03T22:48:39.254Z,95304.8
2018-06-03T22:53:35.171Z,95304.6
2018-06-03T22:58:31.138Z,95309.2
2018-06-03T23:03:27.289Z,95302.1
2018-06-03T23:08:23.404Z,95291.6
2018-06-03T23:13:19.221Z,95282
2018-06-03T23:18:15.067Z,95291
2018-06-03T23:23:11.014Z,95273
2018-06-03T23:28:07.161Z,95269.6
2018-06-03T23:33:02.894Z,95267.5
2018-06-03T23:37:58.844Z,95269.8
2018-06-03T23:42:55.193Z,95273.3
2018-06-03T23:47:51.246Z,95264.6
2018-06-03T23:52:47.352Z,95265.6
2018-06-03T23:57:43.506Z,95187.2
